createdAt,value
2023-03-06T00:01:38.767Z,4.66
2023-03-06T00:04:41.368Z,4.91
2023-03-06T00:07:44.075Z,4.96
2023-03-06T00:10:46.781Z,4.98
2023-03-06T00:13:49.192Z,4.98
2023-03-06T00:16:56.005Z,4.99
2023-03-06T00:19:58.330Z,4.94
2023-03-06T00:23:01.304Z,5.10
2023-03-06T00:26:07.403Z,5.07
2023-03-06T00:29:10.270Z,5.00
2023-03-06T00:32:12.552Z,4.96
2023-03-06T00:35:18.182Z,4.85
2023-03-06T00:38:20.764Z,4.71
2023-03-06T00:41:25.044Z,4.78
2023-03-06T00:44:27.559Z,4.48
2023-03-06T00:47:30.219Z,4.61
2023-03-06T00:50:35.217Z,4.48
2023-03-06T00:53:38.002Z,4.32
2023-03-06T00:56:40.311Z,4.30
2023-03-06T00:59:43.291Z,4.26
2023-03-06T01:02:45.624Z,4.11
2023-03-06T01:05:48.737Z,4.23
2023-03-06T01:08:51.196Z,4.35
2023-03-06T01:11:53.973Z,4.42
2023-03-06T01:14:56.281Z,4.40
2023-03-06T01:17:59.026Z,4.23
2023-03-06T01:21:01.813Z,4.28
2023-03-06T01:24:04.646Z,4.29
2023-03-06T01:27:06.950Z,4.44
2023-03-06T01:30:10.509Z,4.39
2023-03-06T01:33:13.122Z,4.41
2023-03-06T01:36:16.002Z,4.29
2023-03-06T01:39:18.311Z,4.20
2023-03-06T01:42:22.116Z,4.16
2023-03-06T01:45:24.681Z,4.40
2023-03-06T01:48:27.441Z,4.35
2023-03-06T01:51:35.889Z,4.31
2023-03-06T01:54:49.580Z,4.38
2023-03-06T01:57:57.670Z,4.32
2023-03-06T02:01:00.350Z,4.48
2023-03-06T02:04:03.062Z,4.45
2023-03-06T02:07:06.245Z,4.43
2023-03-06T02:10:10.245Z,4.46
2023-03-06T02:13:12.758Z,4.52
2023-03-06T02:16:17.658Z,4.63
2023-03-06T02:19:56.793Z,4.59
2023-03-06T02:23:53.013Z,4.59
2023-03-06T02:26:57.386Z,4.71
2023-03-06T02:29:59.568Z,4.73
2023-03-06T02:33:03.419Z,4.74
2023-03-06T02:36:10.220Z,4.82
2023-03-06T02:39:14.627Z,4.67
2023-03-06T02:42:22.416Z,4.78
2023-03-06T02:45:39.197Z,4.84
2023-03-06T02:48:41.705Z,4.81
2023-03-06T02:51:44.594Z,4.60
2023-03-06T02:54:47.445Z,4.70
2023-03-06T02:57:51.111Z,4.85
2023-03-06T03:00:54.013Z,4.84
2023-03-06T03:03:56.749Z,4.79
2023-03-06T03:06:59.618Z,4.60
2023-03-06T03:10:02.360Z,4.67
2023-03-06T03:13:05.207Z,4.79
2023-03-06T03:16:11.750Z,4.70
2023-03-06T03:19:14.706Z,4.68
2023-03-06T03:22:18.946Z,4.45
2023-03-06T03:25:22.682Z,4.45
2023-03-06T03:28:25.689Z,4.58
2023-03-06T03:31:28.387Z,4.42
2023-03-06T03:34:31.180Z,4.38
2023-03-06T03:37:34.762Z,4.57
2023-03-06T03:40:38.730Z,4.47
2023-03-06T03:43:42.237Z,4.59
2023-03-06T03:46:45.083Z,4.61
2023-03-06T03:49:47.961Z,4.45
2023-03-06T03:52:50.949Z,4.49
2023-03-06T03:55:53.478Z,4.44
2023-03-06T03:58:56.465Z,4.59
2023-03-06T04:01:59.490Z,4.47
2023-03-06T04:05:02.526Z,4.43
2023-03-06T04:08:05.559Z,4.57
2023-03-06T04:11:08.588Z,4.67
2023-03-06T04:14:11.057Z,4.57
2023-03-06T04:17:14.121Z,4.76
2023-03-06T04:20:16.996Z,4.73
2023-03-06T04:23:20.527Z,4.56
2023-03-06T04:26:23.089Z,4.55
2023-03-06T04:29:25.909Z,4.71
2023-03-06T04:32:28.450Z,4.73
2023-03-06T04:35:32.240Z,4.80
2023-03-06T04:38:34.895Z,4.82
2023-03-06T04:41:41.341Z,4.67
2023-03-06T04:44:43.928Z,4.87
2023-03-06T04:47:46.515Z,4.78
2023-03-06T04:50:48.911Z,4.91
2023-03-06T04:53:52.307Z,4.88
2023-03-06T04:56:54.828Z,4.89
2023-03-06T04:59:57.530Z,4.94
2023-03-06T05:03:01.338Z,5.16
2023-03-06T05:06:03.881Z,5.04
2023-03-06T05:09:06.121Z,5.27
2023-03-06T05:12:08.762Z,5.24
2023-03-06T05:15:12.680Z,5.34
2023-03-06T05:18:15.316Z,5.29
2023-03-06T05:21:17.668Z,5.38
2023-03-06T05:24:20.629Z,5.49
2023-03-06T05:27:22.949Z,5.48
2023-03-06T05:30:26.047Z,5.45
2023-03-06T05:33:28.354Z,5.48
2023-03-06T05:36:30.966Z,5.36
2023-03-06T05:39:33.474Z,5.49
2023-03-06T05:42:36.083Z,5.38
2023-03-06T05:45:39.498Z,5.45
2023-03-06T05:48:42.147Z,5.50
2023-03-06T05:51:44.484Z,5.64
2023-03-06T05:54:50.910Z,5.58
2023-03-06T05:57:54.147Z,5.58
2023-03-06T06:00:57.308Z,5.65
2023-03-06T06:03:59.894Z,5.55
2023-03-06T06:07:02.287Z,5.63
2023-03-06T06:10:06.403Z,5.64
2023-03-06T06:13:09.125Z,5.50
2023-03-06T06:16:16.399Z,5.50
2023-03-06T06:19:20.219Z,5.48
2023-03-06T06:22:23.474Z,5.65
2023-03-06T06:25:25.816Z,5.59
2023-03-06T06:28:29.486Z,5.23
2023-03-06T06:31:32.097Z,5.44
2023-03-06T06:34:34.903Z,5.50
2023-03-06T06:37:37.829Z,5.48
2023-03-06T06:40:40.703Z,5.66
2023-03-06T06:43:43.082Z,5.47
2023-03-06T06:50:12.483Z,5.60
2023-03-06T06:53:15.074Z,5.76
2023-03-06T06:56:17.457Z,5.68
2023-03-06T06:59:20.600Z,5.52
2023-03-06T07:02:23.216Z,5.51
2023-03-06T07:05:26.294Z,5.68
2023-03-06T07:08:28.731Z,5.33
2023-03-06T07:11:31.838Z,5.74
2023-03-06T07:14:34.465Z,5.80
2023-03-06T07:17:37.104Z,5.68
2023-03-06T07:20:39.522Z,5.74
2023-03-06T07:23:42.148Z,5.90
2023-03-06T07:26:48.377Z,5.87
2023-03-06T07:29:53.716Z,5.75
2023-03-06T07:32:57.760Z,5.67
2023-03-06T07:36:00.479Z,5.91
2023-03-06T07:39:02.890Z,5.90
2023-03-06T07:42:07.591Z,5.89
2023-03-06T07:45:12.298Z,5.73
2023-03-06T07:48:15.031Z,5.79
2023-03-06T07:51:20.231Z,5.68
2023-03-06T07:54:22.883Z,5.72
2023-03-06T07:57:25.357Z,5.63
2023-03-06T08:00:28.122Z,5.60
2023-03-06T08:03:30.812Z,5.72
2023-03-06T08:06:33.445Z,5.24
2023-03-06T08:09:36.222Z,5.70
2023-03-06T08:12:38.558Z,5.70
2023-03-06T08:15:41.344Z,5.71
2023-03-06T08:18:45.835Z,5.75
2023-03-06T08:21:49.148Z,5.70
2023-03-06T08:24:55.228Z,5.58
2023-03-06T08:27:57.897Z,5.59
2023-03-06T08:31:27.488Z,5.69
2023-03-06T08:34:30.275Z,5.56
2023-03-06T08:37:32.609Z,5.65
2023-03-06T08:40:35.540Z,5.70
2023-03-06T08:43:37.954Z,5.74
2023-03-06T08:46:41.014Z,5.92
2023-03-06T08:49:43.411Z,6.01
2023-03-06T08:52:47.343Z,5.97
2023-03-06T08:55:49.724Z,6.27
2023-03-06T08:58:53.464Z,6.30
2023-03-06T09:01:56.140Z,6.41
2023-03-06T09:05:01.293Z,6.55
2023-03-06T09:08:08.829Z,6.85
2023-03-06T09:11:41.032Z,6.80
2023-03-06T09:14:50.728Z,6.38
2023-03-06T09:18:02.410Z,7.26
2023-03-06T09:21:17.304Z,7.49
2023-03-06T09:24:22.384Z,7.29
2023-03-06T09:27:25.307Z,7.57
2023-03-06T09:30:28.454Z,7.80
2023-03-06T09:33:32.758Z,7.50
2023-03-06T09:36:49.306Z,8.12
2023-03-06T09:40:00.232Z,9.06
2023-03-06T09:43:05.188Z,9.47
2023-03-06T09:46:20.142Z,10.65
2023-03-06T09:49:40.905Z,10.76
2023-03-06T09:53:10.451Z,11.51
2023-03-06T09:56:20.445Z,11.46
2023-03-06T09:59:25.429Z,11.51
2023-03-06T10:02:37.202Z,11.14
2023-03-06T10:05:44.714Z,10.57
2023-03-06T10:08:58.218Z,10.35
2023-03-06T10:12:08.933Z,10.04
2023-03-06T10:15:21.964Z,9.63
2023-03-06T10:18:24.733Z,9.37
2023-03-06T10:21:56.372Z,9.05
2023-03-06T10:25:10.903Z,8.99
2023-03-06T10:28:18.264Z,8.85
2023-03-06T10:31:25.188Z,8.72
2023-03-06T10:34:42.737Z,8.40
2023-03-06T10:37:51.938Z,7.89
2023-03-06T10:41:12.854Z,8.23
2023-03-06T10:44:15.371Z,8.06
2023-03-06T10:47:31.128Z,8.01
2023-03-06T10:50:34.662Z,7.89
2023-03-06T10:54:08.553Z,7.83
2023-03-06T10:57:23.967Z,7.85
2023-03-06T11:00:36.068Z,7.85
2023-03-06T11:03:48.617Z,7.77
2023-03-06T11:07:17.741Z,7.85
2023-03-06T11:10:20.620Z,7.85
2023-03-06T11:17:32.080Z,7.90
2023-03-06T11:20:51.916Z,7.84
2023-03-06T11:24:02.330Z,7.76
2023-03-06T11:27:25.494Z,7.81
2023-03-06T11:30:37.608Z,7.76
2023-03-06T11:33:55.863Z,7.91
2023-03-06T11:37:01.353Z,8.01
2023-03-06T11:40:42.342Z,8.01
2023-03-06T11:44:13.498Z,7.93
2023-03-06T11:47:15.990Z,8.03
2023-03-06T11:50:34.706Z,8.10
2023-03-06T11:53:42.215Z,7.88
2023-03-06T11:56:59.675Z,8.16
2023-03-06T12:00:29.746Z,8.01
2023-03-06T12:03:57.933Z,8.19
2023-03-06T12:07:07.846Z,8.18
2023-03-06T12:10:27.824Z,8.19
2023-03-06T12:14:08.592Z,8.12
2023-03-06T12:17:31.891Z,7.64
2023-03-06T12:21:03.703Z,8.11
2023-03-06T12:24:27.026Z,8.13
2023-03-06T12:27:48.640Z,8.12
2023-03-06T12:31:18.752Z,8.11
2023-03-06T12:34:28.507Z,8.19
2023-03-06T12:38:02.160Z,8.16
2023-03-06T12:41:22.891Z,8.29
2023-03-06T12:44:49.902Z,8.32
2023-03-06T12:47:56.564Z,8.29
2023-03-06T12:50:59.829Z,8.22
2023-03-06T12:54:03.247Z,8.23
2023-03-06T12:57:08.589Z,8.20
2023-03-06T13:00:32.530Z,7.99
2023-03-06T13:04:13.836Z,8.25
2023-03-06T13:07:21.146Z,8.14
2023-03-06T13:10:26.979Z,8.24
2023-03-06T13:13:34.137Z,8.25
2023-03-06T13:16:38.650Z,8.26
2023-03-06T13:19:41.291Z,8.19
2023-03-06T13:22:46.209Z,8.21
2023-03-06T13:25:50.801Z,8.28
2023-03-06T13:28:55.511Z,8.12
2023-03-06T13:32:00.940Z,8.21
2023-03-06T13:35:29.677Z,8.14
2023-03-06T13:38:45.016Z,8.02
2023-03-06T13:41:58.438Z,8.06
2023-03-06T13:45:30.275Z,8.10
2023-03-06T13:48:45.318Z,8.20
2023-03-06T13:51:54.410Z,8.08
2023-03-06T13:55:24.806Z,8.24
2023-03-06T13:58:58.686Z,8.10
2023-03-06T14:02:22.538Z,8.24
2023-03-06T14:05:34.745Z,8.19
2023-03-06T14:08:40.991Z,8.19
2023-03-06T14:11:50.691Z,8.18
2023-03-06T14:14:57.252Z,8.12
2023-03-06T14:18:07.697Z,7.94
2023-03-06T14:21:15.957Z,8.01
2023-03-06T14:24:26.860Z,7.87
2023-03-06T14:27:49.452Z,7.98
2023-03-06T14:30:53.964Z,7.62
2023-03-06T14:34:01.729Z,7.71
2023-03-06T14:37:07.708Z,7.66
2023-03-06T14:40:11.515Z,7.73
2023-03-06T14:43:24.639Z,7.66
2023-03-06T14:46:27.006Z,7.52
2023-03-06T14:49:29.740Z,7.56
2023-03-06T14:52:32.853Z,7.34
2023-03-06T14:55:36.126Z,7.57
2023-03-06T14:58:54.967Z,7.56
2023-03-06T15:02:04.285Z,7.46
2023-03-06T15:05:19.619Z,7.32
2023-03-06T15:08:30.389Z,7.31
2023-03-06T15:12:04.912Z,7.47
2023-03-06T15:15:08.119Z,7.36
2023-03-06T15:18:29.723Z,7.39
2023-03-06T15:21:38.073Z,7.40
2023-03-06T15:24:40.574Z,7.25
2023-03-06T15:27:53.379Z,7.39
2023-03-06T15:31:20.895Z,7.32
2023-03-06T15:34:23.924Z,7.31
2023-03-06T15:37:28.787Z,7.30
2023-03-06T15:40:31.968Z,6.64
2023-03-06T15:43:40.240Z,7.27
2023-03-06T15:46:42.857Z,7.36
2023-03-06T15:49:45.618Z,7.37
2023-03-06T15:52:49.691Z,7.28
2023-03-06T15:55:52.748Z,7.29
2023-03-06T15:58:57.899Z,7.22
2023-03-06T16:02:04.339Z,7.14
2023-03-06T16:05:15.706Z,7.17
2023-03-06T16:08:18.168Z,7.02
2023-03-06T16:11:32.486Z,6.95
2023-03-06T16:14:37.937Z,7.01
2023-03-06T16:17:40.604Z,6.83
2023-03-06T16:20:43.199Z,6.88
2023-03-06T16:23:47.254Z,6.78
2023-03-06T16:26:51.857Z,6.65
2023-03-06T16:29:55.607Z,6.71
2023-03-06T16:32:58.784Z,6.31
2023-03-06T16:36:02.844Z,6.64
2023-03-06T16:39:05.661Z,6.62
2023-03-06T16:42:09.328Z,6.58
2023-03-06T16:45:11.900Z,6.41
2023-03-06T16:48:16.779Z,6.41
2023-03-06T16:51:24.904Z,6.40
2023-03-06T16:54:27.624Z,6.53
2023-03-06T16:57:36.688Z,6.32
2023-03-06T17:00:40.601Z,6.41
2023-03-06T17:03:43.076Z,6.43
2023-03-06T17:06:46.326Z,6.23
2023-03-06T17:09:48.643Z,6.26
2023-03-06T17:12:51.238Z,6.38
2023-03-06T17:15:56.914Z,6.01
2023-03-06T17:19:00.956Z,6.14
2023-03-06T17:22:05.841Z,6.29
2023-03-06T17:25:09.352Z,6.09
2023-03-06T17:28:11.997Z,6.23
2023-03-06T17:31:20.863Z,6.12
2023-03-06T17:34:24.630Z,6.25
2023-03-06T17:37:27.551Z,6.17
2023-03-06T17:40:29.986Z,6.25
2023-03-06T17:43:33.693Z,6.17
2023-03-06T17:46:36.072Z,6.16
2023-03-06T17:49:41.056Z,5.97
2023-03-06T17:52:43.528Z,6.11
2023-03-06T17:55:46.168Z,5.95
2023-03-06T17:58:48.507Z,6.11
2023-03-06T18:01:53.123Z,6.03
2023-03-06T18:04:57.593Z,6.05
2023-03-06T18:08:01.234Z,6.08
2023-03-06T18:11:05.066Z,6.07
2023-03-06T18:14:07.415Z,6.15
2023-03-06T18:17:10.062Z,6.17
2023-03-06T18:20:13.158Z,6.19
2023-03-06T18:23:15.824Z,6.08
2023-03-06T18:26:19.515Z,6.22
2023-03-06T18:29:22.623Z,6.10
2023-03-06T18:32:24.875Z,6.21
2023-03-06T18:35:27.718Z,6.08
2023-03-06T18:38:30.078Z,5.98
2023-03-06T18:41:32.896Z,5.90
2023-03-06T18:44:35.183Z,5.92
2023-03-06T18:47:37.835Z,6.12
2023-03-06T18:50:40.119Z,6.05
2023-03-06T18:53:43.693Z,5.87
2023-03-06T18:56:46.097Z,6.02
2023-03-06T18:59:50.086Z,6.04
2023-03-06T19:02:52.475Z,5.88
2023-03-06T19:05:55.493Z,5.88
2023-03-06T19:09:02.222Z,6.09
2023-03-06T19:12:05.799Z,6.10
2023-03-06T19:15:08.813Z,5.97
2023-03-06T19:18:16.822Z,6.01
2023-03-06T19:21:22.079Z,6.12
2023-03-06T19:24:24.839Z,5.99
2023-03-06T19:27:27.246Z,5.98
2023-03-06T19:30:29.975Z,6.09
2023-03-06T19:33:32.292Z,5.95
2023-03-06T19:36:34.954Z,6.04
2023-03-06T19:39:37.309Z,6.02
2023-03-06T19:42:40.008Z,5.98
2023-03-06T19:45:44.028Z,5.94
2023-03-06T19:48:46.998Z,6.09
2023-03-06T19:51:49.440Z,6.10
2023-03-06T19:54:52.889Z,6.15
2023-03-06T19:57:55.253Z,6.17
2023-03-06T20:01:06.911Z,6.02
2023-03-06T20:04:09.777Z,5.95
2023-03-06T20:07:12.605Z,6.00
2023-03-06T20:10:15.393Z,6.07
2023-03-06T20:13:17.791Z,5.99
2023-03-06T20:16:20.743Z,6.00
2023-03-06T20:19:23.094Z,5.96
2023-03-06T20:22:26.058Z,5.99
2023-03-06T20:25:28.815Z,6.02
2023-03-06T20:28:32.455Z,5.85
2023-03-06T20:31:35.450Z,5.73
2023-03-06T20:34:39.442Z,5.68
2023-03-06T20:37:41.850Z,5.84
2023-03-06T20:40:44.816Z,5.75
2023-03-06T20:43:47.774Z,5.78
2023-03-06T20:46:52.023Z,5.80
2023-03-06T20:49:54.287Z,5.86
2023-03-06T20:52:58.454Z,5.94
2023-03-06T20:56:00.976Z,5.93
2023-03-06T20:59:03.798Z,5.92
2023-03-06T21:02:06.567Z,5.97
2023-03-06T21:05:09.597Z,5.77
2023-03-06T21:08:12.012Z,5.94
2023-03-06T21:11:16.156Z,5.76
2023-03-06T21:14:18.536Z,5.78
2023-03-06T21:17:21.260Z,5.66
2023-03-06T21:20:24.123Z,5.91
2023-03-06T21:23:26.751Z,5.92
2023-03-06T21:26:33.732Z,5.75
2023-03-06T21:29:36.532Z,5.72
2023-03-06T21:32:39.127Z,5.63
2023-03-06T21:35:43.839Z,5.48
2023-03-06T21:38:47.772Z,5.71
2023-03-06T21:41:50.448Z,5.64
2023-03-06T21:44:52.809Z,5.84
2023-03-06T21:47:59.101Z,5.87
2023-03-06T21:51:10.694Z,5.63
2023-03-06T21:54:13.328Z,5.83
2023-03-06T21:57:15.883Z,5.72
2023-03-06T22:00:19.597Z,5.90
2023-03-06T22:03:22.341Z,5.88
2023-03-06T22:06:26.982Z,5.78
2023-03-06T22:09:29.751Z,5.85
2023-03-06T22:12:34.412Z,5.96
2023-03-06T22:15:37.056Z,5.96
2023-03-06T22:18:39.490Z,5.93
2023-03-06T22:21:42.128Z,5.78
2023-03-06T22:24:44.473Z,5.93
2023-03-06T22:27:47.101Z,5.99
2023-03-06T22:30:49.479Z,5.74
2023-03-06T22:33:53.324Z,5.92
2023-03-06T22:36:55.810Z,5.91
2023-03-06T22:39:58.397Z,5.80
2023-03-06T22:43:00.910Z,5.81
2023-03-06T22:46:06.450Z,5.75
2023-03-06T22:49:10.757Z,5.73
2023-03-06T22:52:15.197Z,5.88
2023-03-06T22:55:18.706Z,5.71
2023-03-06T22:58:21.624Z,5.84
2023-03-06T23:01:26.653Z,5.89
2023-03-06T23:04:29.917Z,5.82
2023-03-06T23:07:32.331Z,5.93
2023-03-06T23:10:39.545Z,5.92
2023-03-06T23:14:02.985Z,5.74
2023-03-06T23:17:24.169Z,5.69
2023-03-06T23:20:45.049Z,5.80
2023-03-06T23:24:06.979Z,5.80
2023-03-06T23:27:09.611Z,5.77
2023-03-06T23:30:12.569Z,5.74
2023-03-06T23:33:15.210Z,5.58
2023-03-06T23:36:18.589Z,5.74
2023-03-06T23:39:21.193Z,5.65
2023-03-06T23:42:23.779Z,5.63
2023-03-06T23:45:27.377Z,5.57
2023-03-06T23:48:29.954Z,5.41
2023-03-06T23:51:32.598Z,5.51
2023-03-06T23:54:35.824Z,5.65
2023-03-06T23:57:38.430Z,5.64
